sensor_id;sensor_type;location;lat;lon;timestamp;temperature;humidity
21033;DHT22;10675;47.976;7.824;2023-03-01T00:01:14;-1.00;99.90
21033;DHT22;10675;47.976;7.824;2023-03-01T00:03:40;-1.10;99.90
21033;DHT22;10675;47.976;7.824;2023-03-01T00:06:06;-1.20;99.90
21033;DHT22;10675;47.976;7.824;2023-03-01T00:08:32;-1.20;99.90
21033;DHT22;10675;47.976;7.824;2023-03-01T00:11:19;-1.20;99.90
21033;DHT22;10675;47.976;7.824;2023-03-01T00:13:47;-1.10;99.90
21033;DHT22;10675;47.976;7.824;2023-03-01T00:16:22;-1.00;99.90
21033;DHT22;10675;47.976;7.824;2023-03-01T00:18:48;-1.10;99.90
21033;DHT22;10675;47.976;7.824;2023-03-01T00:21:14;-1.20;99.90
21033;DHT22;10675;47.976;7.824;2023-03-01T00:23:40;-1.20;99.90
21033;DHT22;10675;47.976;7.824;2023-03-01T00:26:07;-1.20;99.90
21033;DHT22;10675;47.976;7.824;2023-03-01T00:28:33;-1.30;99.90
21033;DHT22;10675;47.976;7.824;2023-03-01T00:31:11;-1.20;99.90
21033;DHT22;10675;47.976;7.824;2023-03-01T00:33:37;-1.30;99.90
21033;DHT22;10675;47.976;7.824;2023-03-01T00:36:03;-1.30;99.90
21033;DHT22;10675;47.976;7.824;2023-03-01T00:38:29;-1.30;99.90
21033;DHT22;10675;47.976;7.824;2023-03-01T00:40:54;-1.30;99.90
21033;DHT22;10675;47.976;7.824;2023-03-01T00:43:20;-1.60;99.90
21033;DHT22;10675;47.976;7.824;2023-03-01T00:45:45;-1.40;99.90
21033;DHT22;10675;47.976;7.824;2023-03-01T00:48:11;-1.30;99.90
21033;DHT22;10675;47.976;7.824;2023-03-01T00:50:36;-1.40;99.90
21033;DHT22;10675;47.976;7.824;2023-03-01T00:53:02;-1.30;99.90
21033;DHT22;10675;47.976;7.824;2023-03-01T00:55:28;-1.30;99.90
21033;DHT22;10675;47.976;7.824;2023-03-01T00:57:53;-1.30;99.90
21033;DHT22;10675;47.976;7.824;2023-03-01T01:00:19;-1.40;99.90
21033;DHT22;10675;47.976;7.824;2023-03-01T01:02:45;-1.40;99.90
21033;DHT22;10675;47.976;7.824;2023-03-01T01:05:11;-1.50;99.90
21033;DHT22;10675;47.976;7.824;2023-03-01T01:07:37;-1.50;99.90
21033;DHT22;10675;47.976;7.824;2023-03-01T01:10:03;-1.50;99.90
21033;DHT22;10675;47.976;7.824;2023-03-01T01:12:28;-1.50;99.90
21033;DHT22;10675;47.976;7.824;2023-03-01T01:14:54;-1.40;99.90
21033;DHT22;10675;47.976;7.824;2023-03-01T01:17:20;-1.40;99.90
21033;DHT22;10675;47.976;7.824;2023-03-01T01:19:45;-1.40;99.90
21033;DHT22;10675;47.976;7.824;2023-03-01T01:22:11;-1.50;99.90
21033;DHT22;10675;47.976;7.824;2023-03-01T01:24:36;-1.60;99.90
21033;DHT22;10675;47.976;7.824;2023-03-01T01:27:02;-1.70;99.90
21033;DHT22;10675;47.976;7.824;2023-03-01T01:29:27;-1.50;99.90
21033;DHT22;10675;47.976;7.824;2023-03-01T01:31:53;-1.50;99.90
21033;DHT22;10675;47.976;7.824;2023-03-01T01:34:20;-1.60;99.90
21033;DHT22;10675;47.976;7.824;2023-03-01T01:36:50;-1.60;99.90
21033;DHT22;10675;47.976;7.824;2023-03-01T01:39:18;-1.70;99.90
21033;DHT22;10675;47.976;7.824;2023-03-01T01:41:43;-1.70;99.90
21033;DHT22;10675;47.976;7.824;2023-03-01T01:44:19;-1.70;99.90
21033;DHT22;10675;47.976;7.824;2023-03-01T01:47:06;-1.70;99.90
21033;DHT22;10675;47.976;7.824;2023-03-01T01:49:46;-1.80;99.90
21033;DHT22;10675;47.976;7.824;2023-03-01T01:52:31;-1.80;99.90
21033;DHT22;10675;47.976;7.824;2023-03-01T01:55:10;-1.80;99.90
21033;DHT22;10675;47.976;7.824;2023-03-01T01:57:39;-1.70;99.90
21033;DHT22;10675;47.976;7.824;2023-03-01T02:00:18;-1.70;99.90
21033;DHT22;10675;47.976;7.824;2023-03-01T02:02:46;-1.80;99.90
21033;DHT22;10675;47.976;7.824;2023-03-01T02:07:46;-1.80;99.90
21033;DHT22;10675;47.976;7.824;2023-03-01T02:10:13;-1.70;99.90
21033;DHT22;10675;47.976;7.824;2023-03-01T02:12:39;-1.80;99.90
21033;DHT22;10675;47.976;7.824;2023-03-01T02:15:05;-1.80;99.90
21033;DHT22;10675;47.976;7.824;2023-03-01T02:17:31;-1.80;99.90
21033;DHT22;10675;47.976;7.824;2023-03-01T02:22:34;-1.90;99.90
21033;DHT22;10675;47.976;7.824;2023-03-01T02:27:55;-1.90;99.90
21033;DHT22;10675;47.976;7.824;2023-03-01T02:30:22;-1.90;99.90
21033;DHT22;10675;47.976;7.824;2023-03-01T02:32:53;-1.90;99.90
21033;DHT22;10675;47.976;7.824;2023-03-01T02:35:19;-2.00;99.90
21033;DHT22;10675;47.976;7.824;2023-03-01T02:37:46;-1.90;99.90
21033;DHT22;10675;47.976;7.824;2023-03-01T02:43:08;-1.90;99.90
21033;DHT22;10675;47.976;7.824;2023-03-01T02:45:35;-1.80;99.90
21033;DHT22;10675;47.976;7.824;2023-03-01T02:48:01;-1.80;99.90
21033;DHT22;10675;47.976;7.824;2023-03-01T02:55:24;-1.90;99.90
21033;DHT22;10675;47.976;7.824;2023-03-01T02:57:49;-2.00;99.90
21033;DHT22;10675;47.976;7.824;2023-03-01T03:00:22;-2.00;99.90
21033;DHT22;10675;47.976;7.824;2023-03-01T03:02:52;-2.00;99.90
21033;DHT22;10675;47.976;7.824;2023-03-01T03:05:21;-2.10;99.90
21033;DHT22;10675;47.976;7.824;2023-03-01T03:07:48;-2.20;99.90
21033;DHT22;10675;47.976;7.824;2023-03-01T03:10:17;-2.10;99.90
21033;DHT22;10675;47.976;7.824;2023-03-01T03:12:48;-1.60;99.90
21033;DHT22;10675;47.976;7.824;2023-03-01T03:15:13;-2.20;99.90
21033;DHT22;10675;47.976;7.824;2023-03-01T03:17:41;-2.20;99.90
21033;DHT22;10675;47.976;7.824;2023-03-01T03:20:09;-2.20;99.90
21033;DHT22;10675;47.976;7.824;2023-03-01T03:22:40;-2.10;99.90
21033;DHT22;10675;47.976;7.824;2023-03-01T03:25:07;-2.50;99.90
21033;DHT22;10675;47.976;7.824;2023-03-01T03:27:37;-2.30;99.90
21033;DHT22;10675;47.976;7.824;2023-03-01T03:30:05;-2.20;99.90
21033;DHT22;10675;47.976;7.824;2023-03-01T03:32:37;-2.30;99.90
21033;DHT22;10675;47.976;7.824;2023-03-01T03:35:04;-2.30;99.90
21033;DHT22;10675;47.976;7.824;2023-03-01T03:37:36;-2.30;99.90
21033;DHT22;10675;47.976;7.824;2023-03-01T03:40:20;-2.20;99.90
21033;DHT22;10675;47.976;7.824;2023-03-01T03:42:45;-2.20;99.90
21033;DHT22;10675;47.976;7.824;2023-03-01T03:45:11;-2.10;99.90
21033;DHT22;10675;47.976;7.824;2023-03-01T03:47:36;-2.10;99.90
21033;DHT22;10675;47.976;7.824;2023-03-01T03:50:02;-2.10;99.90
21033;DHT22;10675;47.976;7.824;2023-03-01T03:52:27;-2.00;99.90
21033;DHT22;10675;47.976;7.824;2023-03-01T03:54:53;-1.80;99.90
21033;DHT22;10675;47.976;7.824;2023-03-01T03:57:18;-1.70;99.90
21033;DHT22;10675;47.976;7.824;2023-03-01T03:59:44;-1.80;99.90
21033;DHT22;10675;47.976;7.824;2023-03-01T04:02:09;-1.70;99.90
21033;DHT22;10675;47.976;7.824;2023-03-01T04:04:35;-1.70;99.90
21033;DHT22;10675;47.976;7.824;2023-03-01T04:07:00;-1.70;99.90
21033;DHT22;10675;47.976;7.824;2023-03-01T04:09:26;-1.70;99.90
21033;DHT22;10675;47.976;7.824;2023-03-01T04:11:51;-1.60;99.90
21033;DHT22;10675;47.976;7.824;2023-03-01T04:14:17;-1.60;99.90
21033;DHT22;10675;47.976;7.824;2023-03-01T04:16:42;-1.40;99.90
21033;DHT22;10675;47.976;7.824;2023-03-01T04:19:08;-1.30;99.90
21033;DHT22;10675;47.976;7.824;2023-03-01T04:21:34;-1.20;99.90
21033;DHT22;10675;47.976;7.824;2023-03-01T04:24:01;-1.30;99.90
21033;DHT22;10675;47.976;7.824;2023-03-01T04:26:28;-1.30;99.90
21033;DHT22;10675;47.976;7.824;2023-03-01T04:28:54;-1.20;99.90
21033;DHT22;10675;47.976;7.824;2023-03-01T04:31:20;-1.10;99.90
21033;DHT22;10675;47.976;7.824;2023-03-01T04:33:54;-1.10;99.90
21033;DHT22;10675;47.976;7.824;2023-03-01T04:36:25;-1.10;99.90
21033;DHT22;10675;47.976;7.824;2023-03-01T04:38:52;-1.10;99.90
21033;DHT22;10675;47.976;7.824;2023-03-01T04:41:19;-1.10;99.90
21033;DHT22;10675;47.976;7.824;2023-03-01T04:43:45;-1.10;99.90
21033;DHT22;10675;47.976;7.824;2023-03-01T04:46:13;-1.10;99.90
21033;DHT22;10675;47.976;7.824;2023-03-01T04:48:41;-0.80;99.90
21033;DHT22;10675;47.976;7.824;2023-03-01T04:51:07;-0.90;99.90
21033;DHT22;10675;47.976;7.824;2023-03-01T04:53:34;-0.90;99.90
21033;DHT22;10675;47.976;7.824;2023-03-01T04:56:01;-0.90;99.90
21033;DHT22;10675;47.976;7.824;2023-03-01T04:58:27;-0.90;99.90
21033;DHT22;10675;47.976;7.824;2023-03-01T05:00:54;-0.90;99.90
21033;DHT22;10675;47.976;7.824;2023-03-01T05:03:20;-1.00;99.90
21033;DHT22;10675;47.976;7.824;2023-03-01T05:05:49;-1.00;99.90
21033;DHT22;10675;47.976;7.824;2023-03-01T05:08:16;-0.90;99.90
21033;DHT22;10675;47.976;7.824;2023-03-01T05:10:48;-1.00;99.90
21033;DHT22;10675;47.976;7.824;2023-03-01T05:13:14;-0.90;99.90
21033;DHT22;10675;47.976;7.824;2023-03-01T05:15:47;-0.90;99.90
21033;DHT22;10675;47.976;7.824;2023-03-01T05:18:13;-0.90;99.90
21033;DHT22;10675;47.976;7.824;2023-03-01T05:20:38;-0.90;99.90
21033;DHT22;10675;47.976;7.824;2023-03-01T05:23:04;-0.90;99.90
21033;DHT22;10675;47.976;7.824;2023-03-01T05:25:31;-0.90;99.90
21033;DHT22;10675;47.976;7.824;2023-03-01T05:27:59;-0.90;99.90
21033;DHT22;10675;47.976;7.824;2023-03-01T05:30:24;-0.90;99.90
21033;DHT22;10675;47.976;7.824;2023-03-01T05:32:50;-0.80;99.90
21033;DHT22;10675;47.976;7.824;2023-03-01T05:35:21;-0.90;99.90
21033;DHT22;10675;47.976;7.824;2023-03-01T05:37:48;-0.80;99.90
21033;DHT22;10675;47.976;7.824;2023-03-01T05:40:16;-0.90;99.90
21033;DHT22;10675;47.976;7.824;2023-03-01T05:42:54;-0.90;99.90
21033;DHT22;10675;47.976;7.824;2023-03-01T05:45:21;-0.80;99.90
21033;DHT22;10675;47.976;7.824;2023-03-01T05:47:49;-0.90;99.90
21033;DHT22;10675;47.976;7.824;2023-03-01T05:50:21;-0.90;99.90
21033;DHT22;10675;47.976;7.824;2023-03-01T05:52:58;-0.40;99.90
21033;DHT22;10675;47.976;7.824;2023-03-01T05:55:24;-0.80;99.90
21033;DHT22;10675;47.976;7.824;2023-03-01T05:57:50;-0.70;99.90
21033;DHT22;10675;47.976;7.824;2023-03-01T06:00:19;-0.60;99.90
21033;DHT22;10675;47.976;7.824;2023-03-01T06:02:45;-0.80;99.90
21033;DHT22;10675;47.976;7.824;2023-03-01T06:05:12;-0.70;99.90
21033;DHT22;10675;47.976;7.824;2023-03-01T06:07:38;-0.50;99.90
21033;DHT22;10675;47.976;7.824;2023-03-01T06:10:05;-0.70;99.90
21033;DHT22;10675;47.976;7.824;2023-03-01T06:12:35;-0.80;99.90
21033;DHT22;10675;47.976;7.824;2023-03-01T06:15:02;-0.80;99.90
21033;DHT22;10675;47.976;7.824;2023-03-01T06:17:33;-0.80;99.90
21033;DHT22;10675;47.976;7.824;2023-03-01T06:20:07;-0.80;99.90
21033;DHT22;10675;47.976;7.824;2023-03-01T06:22:33;-0.70;99.90
21033;DHT22;10675;47.976;7.824;2023-03-01T06:24:59;-0.70;99.90
21033;DHT22;10675;47.976;7.824;2023-03-01T06:27:24;-0.90;99.90
21033;DHT22;10675;47.976;7.824;2023-03-01T06:29:50;-0.80;99.90
21033;DHT22;10675;47.976;7.824;2023-03-01T06:32:16;-0.80;99.90
21033;DHT22;10675;47.976;7.824;2023-03-01T06:34:41;-0.70;99.90
21033;DHT22;10675;47.976;7.824;2023-03-01T06:37:07;-0.70;99.90
21033;DHT22;10675;47.976;7.824;2023-03-01T06:39:33;-0.70;99.90
21033;DHT22;10675;47.976;7.824;2023-03-01T06:41:59;-0.70;99.90
21033;DHT22;10675;47.976;7.824;2023-03-01T06:44:25;-0.50;99.90
21033;DHT22;10675;47.976;7.824;2023-03-01T06:46:50;-0.70;99.90
21033;DHT22;10675;47.976;7.824;2023-03-01T06:49:16;-0.60;99.90
21033;DHT22;10675;47.976;7.824;2023-03-01T06:51:43;-0.70;99.90
21033;DHT22;10675;47.976;7.824;2023-03-01T06:54:09;-0.70;99.90
21033;DHT22;10675;47.976;7.824;2023-03-01T06:56:34;-0.70;99.90
21033;DHT22;10675;47.976;7.824;2023-03-01T06:59:00;-0.70;99.90
21033;DHT22;10675;47.976;7.824;2023-03-01T07:01:26;-0.80;99.90
21033;DHT22;10675;47.976;7.824;2023-03-01T07:03:51;-0.70;99.90
21033;DHT22;10675;47.976;7.824;2023-03-01T07:06:17;-0.60;99.90
21033;DHT22;10675;47.976;7.824;2023-03-01T07:08:43;-0.50;99.90
21033;DHT22;10675;47.976;7.824;2023-03-01T07:11:08;-0.60;99.90
21033;DHT22;10675;47.976;7.824;2023-03-01T07:13:34;-0.50;99.90
21033;DHT22;10675;47.976;7.824;2023-03-01T07:15:59;-0.40;99.90
21033;DHT22;10675;47.976;7.824;2023-03-01T07:18:25;-0.30;99.90
21033;DHT22;10675;47.976;7.824;2023-03-01T07:20:51;-0.20;99.90
21033;DHT22;10675;47.976;7.824;2023-03-01T07:23:16;-0.20;99.90
21033;DHT22;10675;47.976;7.824;2023-03-01T07:25:42;-0.20;99.90
21033;DHT22;10675;47.976;7.824;2023-03-01T07:28:07;-0.20;99.90
21033;DHT22;10675;47.976;7.824;2023-03-01T07:30:33;-0.20;99.90
21033;DHT22;10675;47.976;7.824;2023-03-01T07:32:58;-0.30;99.90
21033;DHT22;10675;47.976;7.824;2023-03-01T07:35:27;-0.10;99.90
21033;DHT22;10675;47.976;7.824;2023-03-01T07:37:53;0.00;99.90
21033;DHT22;10675;47.976;7.824;2023-03-01T07:40:19;0.00;99.90
21033;DHT22;10675;47.976;7.824;2023-03-01T07:42:45;-0.10;99.90
21033;DHT22;10675;47.976;7.824;2023-03-01T07:45:10;0.00;99.90
21033;DHT22;10675;47.976;7.824;2023-03-01T07:47:36;0.00;99.90
21033;DHT22;10675;47.976;7.824;2023-03-01T07:50:02;-0.10;99.90
21033;DHT22;10675;47.976;7.824;2023-03-01T07:52:29;0.00;99.90
21033;DHT22;10675;47.976;7.824;2023-03-01T07:54:54;0.00;99.90
21033;DHT22;10675;47.976;7.824;2023-03-01T07:57:20;0.00;99.90
21033;DHT22;10675;47.976;7.824;2023-03-01T07:59:45;0.00;99.90
21033;DHT22;10675;47.976;7.824;2023-03-01T08:02:11;-0.10;99.90
21033;DHT22;10675;47.976;7.824;2023-03-01T08:04:37;0.00;99.90
21033;DHT22;10675;47.976;7.824;2023-03-01T08:07:05;0.10;99.90
21033;DHT22;10675;47.976;7.824;2023-03-01T08:09:31;0.10;99.90
21033;DHT22;10675;47.976;7.824;2023-03-01T08:11:57;0.10;99.90
21033;DHT22;10675;47.976;7.824;2023-03-01T08:14:24;0.10;99.90
21033;DHT22;10675;47.976;7.824;2023-03-01T08:16:50;-0.20;99.90
21033;DHT22;10675;47.976;7.824;2023-03-01T08:19:16;-0.10;99.90
21033;DHT22;10675;47.976;7.824;2023-03-01T08:21:42;0.00;99.90
21033;DHT22;10675;47.976;7.824;2023-03-01T08:24:08;0.10;99.90
21033;DHT22;10675;47.976;7.824;2023-03-01T08:26:36;0.20;99.90
21033;DHT22;10675;47.976;7.824;2023-03-01T08:29:02;0.30;99.90
21033;DHT22;10675;47.976;7.824;2023-03-01T08:31:32;0.40;99.90
21033;DHT22;10675;47.976;7.824;2023-03-01T08:34:00;0.30;99.90
21033;DHT22;10675;47.976;7.824;2023-03-01T08:36:32;0.30;99.90
21033;DHT22;10675;47.976;7.824;2023-03-01T08:38:58;0.20;99.90
21033;DHT22;10675;47.976;7.824;2023-03-01T08:41:24;0.10;99.90
21033;DHT22;10675;47.976;7.824;2023-03-01T08:43:50;0.40;99.90
21033;DHT22;10675;47.976;7.824;2023-03-01T08:46:16;0.50;99.90
21033;DHT22;10675;47.976;7.824;2023-03-01T08:48:41;0.50;99.90
21033;DHT22;10675;47.976;7.824;2023-03-01T08:51:14;0.50;99.90
21033;DHT22;10675;47.976;7.824;2023-03-01T08:53:40;0.50;99.90
21033;DHT22;10675;47.976;7.824;2023-03-01T08:56:06;0.50;99.90
21033;DHT22;10675;47.976;7.824;2023-03-01T08:58:33;0.40;99.90
21033;DHT22;10675;47.976;7.824;2023-03-01T09:00:58;0.50;99.90
21033;DHT22;10675;47.976;7.824;2023-03-01T09:03:24;0.70;99.90
21033;DHT22;10675;47.976;7.824;2023-03-01T09:05:51;0.80;99.90
21033;DHT22;10675;47.976;7.824;2023-03-01T09:08:17;0.80;99.90
21033;DHT22;10675;47.976;7.824;2023-03-01T09:10:43;0.90;99.90
21033;DHT22;10675;47.976;7.824;2023-03-01T09:13:09;1.00;99.90
21033;DHT22;10675;47.976;7.824;2023-03-01T09:15:37;1.00;99.90
21033;DHT22;10675;47.976;7.824;2023-03-01T09:18:03;1.20;99.90
21033;DHT22;10675;47.976;7.824;2023-03-01T09:20:29;1.20;99.90
21033;DHT22;10675;47.976;7.824;2023-03-01T09:22:56;1.40;99.90
21033;DHT22;10675;47.976;7.824;2023-03-01T09:25:21;1.20;99.90
21033;DHT22;10675;47.976;7.824;2023-03-01T09:27:47;1.30;99.90
21033;DHT22;10675;47.976;7.824;2023-03-01T09:30:13;1.30;99.90
21033;DHT22;10675;47.976;7.824;2023-03-01T09:32:38;1.40;99.90
21033;DHT22;10675;47.976;7.824;2023-03-01T09:35:08;1.40;99.90
21033;DHT22;10675;47.976;7.824;2023-03-01T09:37:35;1.40;99.90
21033;DHT22;10675;47.976;7.824;2023-03-01T09:40:01;1.40;99.90
21033;DHT22;10675;47.976;7.824;2023-03-01T09:42:29;1.40;99.90
21033;DHT22;10675;47.976;7.824;2023-03-01T09:45:05;1.60;99.90
21033;DHT22;10675;47.976;7.824;2023-03-01T09:47:33;1.70;99.90
21033;DHT22;10675;47.976;7.824;2023-03-01T09:50:14;1.70;99.90
21033;DHT22;10675;47.976;7.824;2023-03-01T09:55:15;1.90;99.90
21033;DHT22;10675;47.976;7.824;2023-03-01T09:58:06;2.00;99.90
21033;DHT22;10675;47.976;7.824;2023-03-01T10:00:46;2.00;99.90
21033;DHT22;10675;47.976;7.824;2023-03-01T10:06:14;2.10;99.90
21033;DHT22;10675;47.976;7.824;2023-03-01T10:11:35;2.40;99.90
21033;DHT22;10675;47.976;7.824;2023-03-01T10:17:02;2.60;99.90
21033;DHT22;10675;47.976;7.824;2023-03-01T10:19:45;2.60;99.90
21033;DHT22;10675;47.976;7.824;2023-03-01T10:22:20;2.60;99.90
21033;DHT22;10675;47.976;7.824;2023-03-01T10:24:47;2.90;99.90
21033;DHT22;10675;47.976;7.824;2023-03-01T10:27:34;2.80;99.90
21033;DHT22;10675;47.976;7.824;2023-03-01T10:30:52;2.90;99.90
21033;DHT22;10675;47.976;7.824;2023-03-01T10:32:59;2.90;99.90
21033;DHT22;10675;47.976;7.824;2023-03-01T10:35:27;2.50;99.90
21033;DHT22;10675;47.976;7.824;2023-03-01T10:38:05;2.80;99.90
21033;DHT22;10675;47.976;7.824;2023-03-01T10:40:32;2.80;99.90
21033;DHT22;10675;47.976;7.824;2023-03-01T10:43:00;2.60;99.90
21033;DHT22;10675;47.976;7.824;2023-03-01T10:45:36;2.80;99.90
21033;DHT22;10675;47.976;7.824;2023-03-01T10:48:17;3.00;99.90
21033;DHT22;10675;47.976;7.824;2023-03-01T10:50:46;3.30;99.90
21033;DHT22;10675;47.976;7.824;2023-03-01T10:56:08;3.40;99.90
21033;DHT22;10675;47.976;7.824;2023-03-01T10:58:37;3.40;99.90
21033;DHT22;10675;47.976;7.824;2023-03-01T11:01:06;3.20;99.90
21033;DHT22;10675;47.976;7.824;2023-03-01T11:03:37;3.50;99.90
21033;DHT22;10675;47.976;7.824;2023-03-01T11:06:12;3.70;99.90
21033;DHT22;10675;47.976;7.824;2023-03-01T11:08:46;3.70;99.90
21033;DHT22;10675;47.976;7.824;2023-03-01T11:14:03;3.70;99.50
21033;DHT22;10675;47.976;7.824;2023-03-01T11:16:33;3.80;99.50
21033;DHT22;10675;47.976;7.824;2023-03-01T11:21:32;3.80;99.60
21033;DHT22;10675;47.976;7.824;2023-03-01T11:24:00;4.00;99.40
21033;DHT22;10675;47.976;7.824;2023-03-01T11:26:28;4.20;99.10
21033;DHT22;10675;47.976;7.824;2023-03-01T11:28:56;4.30;98.20
21033;DHT22;10675;47.976;7.824;2023-03-01T11:31:24;4.30;98.20
21033;DHT22;10675;47.976;7.824;2023-03-01T11:34:12;4.40;98.10
21033;DHT22;10675;47.976;7.824;2023-03-01T11:36:49;4.20;97.70
21033;DHT22;10675;47.976;7.824;2023-03-01T11:39:31;4.00;98.10
21033;DHT22;10675;47.976;7.824;2023-03-01T11:42:06;4.00;98.10
21033;DHT22;10675;47.976;7.824;2023-03-01T11:44:36;4.40;97.90
21033;DHT22;10675;47.976;7.824;2023-03-01T11:58:41;4.60;96.70
21033;DHT22;10675;47.976;7.824;2023-03-01T12:01:11;4.70;96.40
21033;DHT22;10675;47.976;7.824;2023-03-01T12:12:06;5.40;94.80
21033;DHT22;10675;47.976;7.824;2023-03-01T12:17:56;5.20;94.10
21033;DHT22;10675;47.976;7.824;2023-03-01T12:20:42;5.20;94.00
21033;DHT22;10675;47.976;7.824;2023-03-01T12:23:26;5.30;94.00
21033;DHT22;10675;47.976;7.824;2023-03-01T12:31:44;6.00;92.60
21033;DHT22;10675;47.976;7.824;2023-03-01T12:45:19;6.20;90.50
21033;DHT22;10675;47.976;7.824;2023-03-01T12:50:46;6.30;91.20
21033;DHT22;10675;47.976;7.824;2023-03-01T12:53:51;6.90;90.30
21033;DHT22;10675;47.976;7.824;2023-03-01T12:56:22;7.20;88.40
21033;DHT22;10675;47.976;7.824;2023-03-01T12:59:02;7.40;87.30
21033;DHT22;10675;47.976;7.824;2023-03-01T13:01:38;7.40;85.00
21033;DHT22;10675;47.976;7.824;2023-03-01T13:06:58;8.10;85.90
21033;DHT22;10675;47.976;7.824;2023-03-01T13:09:43;8.50;83.10
21033;DHT22;10675;47.976;7.824;2023-03-01T13:20:20;9.20;76.00
21033;DHT22;10675;47.976;7.824;2023-03-01T13:22:46;9.20;75.30
21033;DHT22;10675;47.976;7.824;2023-03-01T13:25:19;9.40;76.20
21033;DHT22;10675;47.976;7.824;2023-03-01T13:27:46;9.60;74.20
21033;DHT22;10675;47.976;7.824;2023-03-01T13:35:56;9.10;75.00
21033;DHT22;10675;47.976;7.824;2023-03-01T13:38:48;9.30;73.80
21033;DHT22;10675;47.976;7.824;2023-03-01T13:41:15;8.80;73.00
21033;DHT22;10675;47.976;7.824;2023-03-01T13:43:43;8.60;74.60
21033;DHT22;10675;47.976;7.824;2023-03-01T13:46:16;8.70;75.20
21033;DHT22;10675;47.976;7.824;2023-03-01T13:48:45;8.60;88.20
21033;DHT22;10675;47.976;7.824;2023-03-01T13:51:11;8.90;77.40
21033;DHT22;10675;47.976;7.824;2023-03-01T13:53:44;8.70;74.40
21033;DHT22;10675;47.976;7.824;2023-03-01T13:56:22;8.60;74.90
21033;DHT22;10675;47.976;7.824;2023-03-01T13:58:54;8.00;73.70
21033;DHT22;10675;47.976;7.824;2023-03-01T14:01:29;8.00;73.60
21033;DHT22;10675;47.976;7.824;2023-03-01T14:03:56;8.60;73.80
21033;DHT22;10675;47.976;7.824;2023-03-01T14:09:02;8.60;75.10
21033;DHT22;10675;47.976;7.824;2023-03-01T14:11:38;9.20;73.40
21033;DHT22;10675;47.976;7.824;2023-03-01T14:14:29;9.30;73.10
21033;DHT22;10675;47.976;7.824;2023-03-01T14:19:41;10.10;69.40
21033;DHT22;10675;47.976;7.824;2023-03-01T14:22:42;10.00;68.20
21033;DHT22;10675;47.976;7.824;2023-03-01T14:25:21;10.00;68.70
21033;DHT22;10675;47.976;7.824;2023-03-01T14:28:00;10.20;69.70
21033;DHT22;10675;47.976;7.824;2023-03-01T14:30:48;10.00;68.10
21033;DHT22;10675;47.976;7.824;2023-03-01T14:33:24;10.10;67.90
21033;DHT22;10675;47.976;7.824;2023-03-01T14:36:06;10.40;67.60
21033;DHT22;10675;47.976;7.824;2023-03-01T14:38:37;10.40;66.80
21033;DHT22;10675;47.976;7.824;2023-03-01T14:41:09;9.80;66.70
21033;DHT22;10675;47.976;7.824;2023-03-01T14:43:38;10.00;68.70
21033;DHT22;10675;47.976;7.824;2023-03-01T14:46:04;10.10;68.00
21033;DHT22;10675;47.976;7.824;2023-03-01T14:48:31;10.10;67.80
21033;DHT22;10675;47.976;7.824;2023-03-01T14:50:57;10.10;68.20
21033;DHT22;10675;47.976;7.824;2023-03-01T14:53:27;10.30;66.20
21033;DHT22;10675;47.976;7.824;2023-03-01T14:56:01;9.80;66.80
21033;DHT22;10675;47.976;7.824;2023-03-01T14:58:28;9.70;66.30
21033;DHT22;10675;47.976;7.824;2023-03-01T15:00:59;9.70;67.90
21033;DHT22;10675;47.976;7.824;2023-03-01T15:03:38;9.90;69.20
21033;DHT22;10675;47.976;7.824;2023-03-01T15:06:07;10.00;65.80
21033;DHT22;10675;47.976;7.824;2023-03-01T15:08:35;9.40;66.20
21033;DHT22;10675;47.976;7.824;2023-03-01T15:13:43;9.50;67.10
21033;DHT22;10675;47.976;7.824;2023-03-01T15:16:13;10.00;66.30
21033;DHT22;10675;47.976;7.824;2023-03-01T15:18:52;10.20;65.70
21033;DHT22;10675;47.976;7.824;2023-03-01T15:21:21;9.70;64.80
21033;DHT22;10675;47.976;7.824;2023-03-01T15:23:54;9.00;67.30
21033;DHT22;10675;47.976;7.824;2023-03-01T15:26:28;9.00;69.10
21033;DHT22;10675;47.976;7.824;2023-03-01T15:28:56;8.60;71.00
21033;DHT22;10675;47.976;7.824;2023-03-01T15:31:35;8.10;72.70
21033;DHT22;10675;47.976;7.824;2023-03-01T15:39:04;7.50;74.90
21033;DHT22;10675;47.976;7.824;2023-03-01T15:41:46;7.60;75.90
21033;DHT22;10675;47.976;7.824;2023-03-01T15:44:26;7.70;75.00
21033;DHT22;10675;47.976;7.824;2023-03-01T15:46:51;7.60;75.10
21033;DHT22;10675;47.976;7.824;2023-03-01T15:51:50;8.00;75.10
21033;DHT22;10675;47.976;7.824;2023-03-01T15:54:21;7.80;74.80
21033;DHT22;10675;47.976;7.824;2023-03-01T15:56:47;7.80;75.10
21033;DHT22;10675;47.976;7.824;2023-03-01T15:59:13;7.80;75.10
21033;DHT22;10675;47.976;7.824;2023-03-01T16:01:43;7.70;75.50
21033;DHT22;10675;47.976;7.824;2023-03-01T16:04:11;7.60;75.80
21033;DHT22;10675;47.976;7.824;2023-03-01T16:06:41;7.50;75.90
21033;DHT22;10675;47.976;7.824;2023-03-01T16:09:07;7.30;76.30
21033;DHT22;10675;47.976;7.824;2023-03-01T16:11:32;7.10;77.10
21033;DHT22;10675;47.976;7.824;2023-03-01T16:13:59;7.20;77.20
21033;DHT22;10675;47.976;7.824;2023-03-01T16:16:25;7.30;77.30
21033;DHT22;10675;47.976;7.824;2023-03-01T16:18:50;7.30;76.70
21033;DHT22;10675;47.976;7.824;2023-03-01T16:21:23;7.20;76.30
21033;DHT22;10675;47.976;7.824;2023-03-01T16:23:49;7.00;77.00
21033;DHT22;10675;47.976;7.824;2023-03-01T16:26:16;6.90;77.50
21033;DHT22;10675;47.976;7.824;2023-03-01T16:28:43;6.90;77.60
21033;DHT22;10675;47.976;7.824;2023-03-01T16:31:08;6.90;78.00
21033;DHT22;10675;47.976;7.824;2023-03-01T16:33:34;6.70;78.40
21033;DHT22;10675;47.976;7.824;2023-03-01T16:36:11;6.70;78.80
21033;DHT22;10675;47.976;7.824;2023-03-01T16:38:37;6.70;78.30
21033;DHT22;10675;47.976;7.824;2023-03-01T16:41:04;6.70;78.50
21033;DHT22;10675;47.976;7.824;2023-03-01T16:43:30;6.60;78.70
21033;DHT22;10675;47.976;7.824;2023-03-01T16:45:56;6.50;79.20
21033;DHT22;10675;47.976;7.824;2023-03-01T16:48:21;6.50;78.90
21033;DHT22;10675;47.976;7.824;2023-03-01T16:50:56;6.40;78.90
21033;DHT22;10675;47.976;7.824;2023-03-01T16:53:22;6.40;79.30
21033;DHT22;10675;47.976;7.824;2023-03-01T16:55:53;6.30;79.60
21033;DHT22;10675;47.976;7.824;2023-03-01T16:58:19;6.30;80.10
21033;DHT22;10675;47.976;7.824;2023-03-01T17:00:44;6.20;80.60
21033;DHT22;10675;47.976;7.824;2023-03-01T17:03:10;6.30;81.40
21033;DHT22;10675;47.976;7.824;2023-03-01T17:05:40;6.20;80.50
21033;DHT22;10675;47.976;7.824;2023-03-01T17:08:05;6.10;80.80
21033;DHT22;10675;47.976;7.824;2023-03-01T17:10:32;6.20;81.20
21033;DHT22;10675;47.976;7.824;2023-03-01T17:12:58;6.20;82.40
21033;DHT22;10675;47.976;7.824;2023-03-01T17:15:23;6.10;83.40
21033;DHT22;10675;47.976;7.824;2023-03-01T17:17:49;6.00;84.40
21033;DHT22;10675;47.976;7.824;2023-03-01T17:20:16;6.00;85.00
21033;DHT22;10675;47.976;7.824;2023-03-01T17:22:42;5.90;85.20
21033;DHT22;10675;47.976;7.824;2023-03-01T17:25:09;5.90;85.00
21033;DHT22;10675;47.976;7.824;2023-03-01T17:27:37;6.00;87.20
21033;DHT22;10675;47.976;7.824;2023-03-01T17:30:04;6.10;87.10
21033;DHT22;10675;47.976;7.824;2023-03-01T17:32:30;6.30;86.60
21033;DHT22;10675;47.976;7.824;2023-03-01T17:34:56;6.20;85.30
21033;DHT22;10675;47.976;7.824;2023-03-01T17:37:21;6.20;85.70
21033;DHT22;10675;47.976;7.824;2023-03-01T17:39:47;6.10;86.00